createdAt,value
2017-09-29T00:01:01.051Z,16.23
2017-09-29T00:03:28.045Z,16.15
2017-09-29T00:05:54.282Z,16.15
2017-09-29T00:08:20.540Z,16.23
2017-09-29T00:10:46.770Z,16.23
2017-09-29T00:13:12.993Z,16.25
2017-09-29T00:15:39.270Z,16.20
2017-09-29T00:18:05.507Z,16.12
2017-09-29T00:20:31.806Z,16.27
2017-09-29T00:22:58.820Z,16.35
2017-09-29T00:25:25.064Z,16.29
2017-09-29T00:27:52.030Z,16.23
2017-09-29T00:30:18.310Z,16.19
2017-09-29T00:32:44.549Z,16.19
2017-09-29T00:35:10.813Z,16.14
2017-09-29T00:37:37.815Z,16.13
2017-09-29T00:40:04.062Z,16.10
2017-09-29T00:42:30.318Z,16.14
2017-09-29T00:44:56.632Z,16.15
2017-09-29T00:47:23.632Z,16.10
2017-09-29T00:49:49.954Z,16.20
2017-09-29T00:52:16.232Z,16.26
2017-09-29T00:54:43.286Z,16.27
2017-09-29T00:57:10.282Z,16.27
2017-09-29T00:59:36.579Z,16.19
2017-09-29T01:02:03.757Z,16.23
2017-09-29T01:04:30.027Z,16.22
2017-09-29T01:06:56.637Z,16.31
2017-09-29T01:09:22.865Z,16.31
2017-09-29T01:11:49.921Z,16.30
2017-09-29T01:14:16.275Z,16.33
2017-09-29T01:16:43.280Z,16.39
2017-09-29T01:19:09.521Z,16.23
2017-09-29T01:21:35.964Z,16.21
2017-09-29T01:24:02.215Z,16.19
2017-09-29T01:26:29.222Z,16.26
2017-09-29T01:28:55.758Z,16.18
2017-09-29T01:31:22.012Z,16.18
2017-09-29T01:33:48.257Z,16.28
2017-09-29T01:36:15.262Z,16.25
2017-09-29T01:38:41.513Z,16.29
2017-09-29T01:41:07.781Z,16.34
2017-09-29T01:43:34.029Z,16.31
2017-09-29T01:46:00.321Z,16.39
2017-09-29T01:48:27.374Z,16.29
2017-09-29T01:50:54.346Z,16.37
2017-09-29T01:53:20.605Z,16.36
2017-09-29T01:55:46.881Z,16.37
2017-09-29T01:58:13.888Z,16.42
2017-09-29T02:00:40.149Z,16.41
2017-09-29T02:03:07.457Z,16.42
2017-09-29T02:05:33.700Z,16.39
2017-09-29T02:07:59.941Z,16.33
2017-09-29T02:10:26.228Z,16.32
2017-09-29T02:12:52.473Z,16.24
2017-09-29T02:15:18.729Z,16.33
2017-09-29T02:17:45.031Z,16.28
2017-09-29T02:20:11.302Z,16.43
2017-09-29T02:22:38.309Z,16.36
2017-09-29T02:25:04.618Z,16.45
2017-09-29T02:27:30.862Z,16.42
2017-09-29T02:29:57.096Z,16.30
2017-09-29T02:32:23.393Z,16.30
2017-09-29T02:34:49.689Z,16.38
2017-09-29T02:37:16.704Z,16.44
2017-09-29T02:39:43.009Z,16.36
2017-09-29T02:42:09.269Z,16.37
2017-09-29T02:44:35.518Z,16.43
2017-09-29T02:47:02.591Z,16.46
2017-09-29T02:49:28.845Z,16.48
2017-09-29T02:51:55.087Z,16.36
2017-09-29T02:54:21.625Z,16.33
2017-09-29T02:56:54.664Z,16.30
2017-09-29T02:59:22.881Z,16.28
2017-09-29T03:01:51.769Z,16.37
2017-09-29T03:04:19.167Z,16.18
2017-09-29T03:06:46.189Z,16.18
2017-09-29T03:09:12.417Z,16.21
2017-09-29T03:11:38.654Z,16.23
2017-09-29T03:14:04.890Z,16.20
2017-09-29T03:16:31.129Z,16.25
2017-09-29T03:18:58.101Z,16.15
2017-09-29T03:21:24.397Z,16.11
2017-09-29T03:23:51.364Z,16.13
2017-09-29T03:26:18.326Z,16.06
2017-09-29T03:28:44.590Z,16.02
2017-09-29T03:31:10.838Z,16.02
2017-09-29T03:33:37.082Z,16.13
2017-09-29T03:36:03.371Z,16.10
2017-09-29T03:38:29.614Z,16.06
2017-09-29T03:40:55.848Z,16.10
2017-09-29T03:43:22.360Z,16.16
2017-09-29T03:45:48.613Z,16.04
2017-09-29T03:48:14.862Z,16.13
2017-09-29T03:50:48.861Z,16.09
2017-09-29T03:53:16.899Z,16.10
2017-09-29T03:55:45.053Z,16.11
2017-09-29T03:58:15.397Z,16.01
2017-09-29T04:00:41.645Z,16.06
2017-09-29T04:03:08.160Z,15.98
2017-09-29T04:05:34.397Z,16.06
2017-09-29T04:08:00.637Z,16.12
2017-09-29T04:10:26.865Z,15.99
2017-09-29T04:12:53.093Z,15.93
2017-09-29T04:15:19.354Z,15.86
2017-09-29T04:17:45.629Z,15.92
2017-09-29T04:20:11.873Z,16.00
2017-09-29T04:22:38.087Z,15.90
2017-09-29T04:25:04.379Z,15.87
2017-09-29T04:27:30.641Z,15.86
2017-09-29T04:29:56.873Z,15.91
2017-09-29T04:32:23.149Z,15.97
2017-09-29T04:34:50.116Z,16.10
2017-09-29T04:37:16.325Z,15.91
2017-09-29T04:39:43.329Z,15.87
2017-09-29T04:42:09.578Z,15.92
2017-09-29T04:44:36.542Z,15.98
2017-09-29T04:47:03.845Z,16.13
2017-09-29T04:49:30.073Z,16.14
2017-09-29T04:51:56.303Z,15.88
2017-09-29T04:54:22.732Z,15.92
2017-09-29T04:56:48.962Z,15.86
2017-09-29T04:59:15.177Z,15.96
2017-09-29T05:01:41.408Z,15.92
2017-09-29T05:04:07.650Z,15.97
2017-09-29T05:06:34.178Z,15.89
2017-09-29T05:09:00.405Z,16.00
2017-09-29T05:11:26.629Z,15.99
2017-09-29T05:13:52.889Z,15.90
2017-09-29T05:16:19.097Z,15.87
2017-09-29T05:18:45.327Z,15.97
2017-09-29T05:21:11.613Z,15.96
2017-09-29T05:23:37.858Z,15.90
2017-09-29T05:26:04.095Z,15.90
2017-09-29T05:28:30.745Z,15.88
2017-09-29T05:30:57.074Z,15.96
2017-09-29T05:33:23.330Z,15.96
2017-09-29T05:35:49.589Z,16.00
2017-09-29T05:38:15.809Z,15.96
2017-09-29T05:40:42.947Z,15.97
2017-09-29T05:43:09.382Z,15.83
2017-09-29T05:45:37.305Z,15.91
2017-09-29T05:48:04.956Z,15.94
2017-09-29T05:50:31.490Z,15.96
2017-09-29T05:52:57.888Z,16.06
2017-09-29T05:55:24.432Z,16.01
2017-09-29T05:57:51.584Z,15.96
2017-09-29T06:00:18.428Z,15.94
2017-09-29T06:02:44.899Z,15.89
2017-09-29T06:05:11.446Z,16.01
2017-09-29T06:07:38.689Z,15.96
2017-09-29T06:10:06.133Z,15.86
2017-09-29T06:12:33.515Z,15.84
2017-09-29T06:15:00.249Z,15.87
2017-09-29T06:17:26.875Z,15.85
2017-09-29T06:19:53.501Z,15.81
2017-09-29T06:22:20.199Z,15.91
2017-09-29T06:24:47.663Z,15.84
2017-09-29T06:27:14.596Z,16.05
2017-09-29T06:29:41.860Z,16.00
2017-09-29T06:32:08.395Z,15.97
2017-09-29T06:34:35.972Z,15.99
2017-09-29T06:37:02.676Z,15.97
2017-09-29T06:39:29.046Z,15.97
2017-09-29T06:41:56.864Z,15.93
2017-09-29T06:44:24.105Z,16.05
2017-09-29T06:46:50.599Z,15.97
2017-09-29T06:49:17.397Z,16.04
2017-09-29T06:51:44.906Z,16.19
2017-09-29T06:54:11.479Z,16.23
2017-09-29T06:56:38.731Z,16.16
2017-09-29T06:59:06.228Z,16.36
2017-09-29T07:01:33.169Z,16.31
2017-09-29T07:03:59.820Z,16.33
2017-09-29T07:06:26.239Z,16.40
2017-09-29T07:08:52.737Z,16.31
2017-09-29T07:11:19.382Z,16.19
2017-09-29T07:13:46.871Z,16.06
2017-09-29T07:16:13.458Z,16.13
2017-09-29T07:18:40.209Z,16.27
2017-09-29T07:21:06.700Z,16.33
2017-09-29T07:23:33.138Z,16.43
2017-09-29T07:26:01.806Z,16.44
2017-09-29T07:28:29.893Z,16.67
2017-09-29T07:30:57.517Z,16.66
2017-09-29T07:33:24.703Z,16.79
2017-09-29T07:35:51.021Z,16.82
2017-09-29T07:38:17.609Z,16.75
2017-09-29T07:40:43.977Z,16.94
2017-09-29T07:43:10.462Z,16.90
2017-09-29T07:45:37.447Z,16.65
2017-09-29T07:48:04.549Z,16.74
2017-09-29T07:50:31.935Z,16.81
2017-09-29T07:52:59.359Z,16.87
2017-09-29T07:55:25.972Z,16.97
2017-09-29T07:57:52.653Z,17.10
2017-09-29T08:00:19.048Z,17.02
2017-09-29T08:02:45.473Z,16.96
2017-09-29T08:05:11.957Z,17.03
2017-09-29T08:07:39.546Z,17.15
2017-09-29T08:10:06.162Z,17.27
2017-09-29T08:12:33.452Z,17.21
2017-09-29T08:15:00.289Z,17.21
2017-09-29T08:17:26.956Z,17.30
2017-09-29T08:19:53.334Z,17.50
2017-09-29T08:22:20.957Z,17.63
2017-09-29T08:24:47.464Z,17.50
2017-09-29T08:27:13.927Z,17.44
2017-09-29T08:29:40.474Z,17.30
2017-09-29T08:32:07.601Z,17.45
2017-09-29T08:34:33.944Z,17.39
2017-09-29T08:37:00.251Z,17.56
2017-09-29T08:39:26.900Z,17.50
2017-09-29T08:41:53.281Z,17.48
2017-09-29T08:44:19.882Z,17.51
2017-09-29T08:46:46.671Z,17.72
2017-09-29T08:49:13.203Z,17.76
2017-09-29T08:51:39.724Z,17.80
2017-09-29T08:54:06.909Z,17.82
2017-09-29T08:56:33.365Z,17.78
2017-09-29T08:59:01.421Z,17.87
2017-09-29T09:01:29.429Z,17.76
2017-09-29T09:03:55.788Z,17.85
2017-09-29T09:06:23.029Z,17.97
2017-09-29T09:08:50.721Z,18.07
2017-09-29T09:11:17.459Z,18.21
2017-09-29T09:13:43.965Z,18.35
2017-09-29T09:16:10.329Z,18.48
2017-09-29T09:18:37.325Z,18.59
2017-09-29T09:21:03.832Z,18.62
2017-09-29T09:23:30.456Z,18.65
2017-09-29T09:25:57.090Z,18.72
2017-09-29T09:28:23.451Z,18.68
2017-09-29T09:30:49.871Z,18.86
2017-09-29T09:33:17.547Z,18.81
2017-09-29T09:35:44.111Z,18.87
2017-09-29T09:38:11.271Z,18.87
2017-09-29T09:40:38.369Z,19.07
2017-09-29T09:43:05.164Z,19.10
2017-09-29T09:45:31.740Z,19.30
2017-09-29T09:47:58.492Z,19.37
2017-09-29T09:50:24.881Z,19.31
2017-09-29T09:52:51.961Z,19.41
2017-09-29T09:55:19.553Z,19.33
2017-09-29T09:57:46.976Z,19.47
2017-09-29T10:00:14.177Z,19.63
2017-09-29T10:02:41.686Z,19.55
2017-09-29T10:05:08.217Z,19.68
2017-09-29T10:07:34.683Z,19.80
2017-09-29T10:10:01.427Z,19.87
2017-09-29T10:12:28.823Z,19.89
2017-09-29T10:14:55.083Z,19.88
2017-09-29T10:17:21.529Z,20.04
2017-09-29T10:19:48.030Z,20.15
2017-09-29T10:22:14.756Z,20.27
2017-09-29T10:24:41.481Z,20.35
2017-09-29T10:27:07.993Z,20.37
2017-09-29T10:29:34.552Z,20.42
2017-09-29T10:32:02.045Z,20.51
2017-09-29T10:34:28.383Z,20.57
2017-09-29T10:36:55.225Z,20.53
2017-09-29T10:39:21.460Z,20.25
2017-09-29T10:41:47.681Z,20.09
2017-09-29T10:44:13.948Z,20.14
2017-09-29T10:46:40.913Z,20.27
2017-09-29T10:49:07.886Z,20.49
2017-09-29T10:51:34.162Z,20.57
2017-09-29T10:54:00.412Z,20.63
2017-09-29T10:56:27.377Z,20.73
2017-09-29T10:58:53.618Z,20.83
2017-09-29T11:01:19.841Z,20.78
2017-09-29T11:03:46.070Z,20.98
2017-09-29T11:06:12.533Z,20.90
2017-09-29T11:08:38.769Z,21.02
2017-09-29T11:11:04.984Z,21.10
2017-09-29T11:13:31.243Z,21.14
2017-09-29T11:15:57.463Z,21.18
2017-09-29T11:18:23.685Z,21.16
2017-09-29T11:20:50.020Z,21.33
2017-09-29T11:23:16.236Z,21.39
2017-09-29T11:25:42.453Z,21.39
2017-09-29T11:28:08.836Z,21.44
2017-09-29T11:30:35.832Z,21.35
2017-09-29T11:33:02.034Z,21.31
2017-09-29T11:35:28.275Z,21.33
2017-09-29T11:37:54.489Z,21.40
2017-09-29T11:40:20.720Z,21.46
2017-09-29T11:42:47.278Z,21.54
2017-09-29T11:45:13.504Z,21.44
2017-09-29T11:47:39.747Z,21.48
2017-09-29T11:50:06.109Z,21.50
2017-09-29T11:52:33.070Z,21.55
2017-09-29T11:54:59.306Z,21.77
2017-09-29T11:57:25.557Z,21.91
2017-09-29T11:59:51.825Z,22.06
2017-09-29T12:02:18.054Z,22.09
2017-09-29T12:04:44.288Z,22.44
2017-09-29T12:07:11.278Z,22.19
2017-09-29T12:09:37.550Z,22.49
2017-09-29T12:12:03.776Z,22.58
2017-09-29T12:14:30.012Z,22.56
2017-09-29T12:16:57.342Z,22.97
2017-09-29T12:19:24.305Z,23.14
2017-09-29T12:21:51.792Z,23.24
2017-09-29T12:24:18.882Z,23.49
2017-09-29T12:26:45.123Z,23.31
2017-09-29T12:29:12.444Z,23.56
2017-09-29T12:31:38.784Z,23.38
2017-09-29T12:34:05.032Z,23.64
2017-09-29T12:36:31.307Z,23.93
2017-09-29T12:38:57.992Z,24.00
2017-09-29T12:41:25.600Z,24.14
2017-09-29T12:43:52.825Z,24.08
2017-09-29T12:46:19.423Z,23.82
2017-09-29T12:48:46.002Z,23.92
2017-09-29T12:51:12.318Z,24.07
2017-09-29T12:53:39.143Z,24.11
2017-09-29T12:56:05.585Z,24.34
2017-09-29T12:58:32.240Z,24.40
2017-09-29T13:00:59.352Z,24.39
2017-09-29T13:03:26.024Z,24.41
2017-09-29T13:05:53.467Z,24.38
2017-09-29T13:08:19.928Z,24.36
2017-09-29T13:10:47.042Z,24.42
2017-09-29T13:13:13.486Z,24.14
2017-09-29T13:15:40.034Z,24.45
2017-09-29T13:18:06.484Z,24.59
2017-09-29T13:20:33.379Z,24.48
2017-09-29T13:23:00.010Z,24.70
2017-09-29T13:25:26.583Z,24.53
2017-09-29T13:27:53.982Z,24.73
2017-09-29T13:30:20.365Z,24.96
2017-09-29T13:32:46.768Z,25.04
2017-09-29T13:35:13.281Z,25.05
2017-09-29T13:37:39.711Z,24.83
2017-09-29T13:40:06.024Z,25.14
2017-09-29T13:42:33.227Z,24.64
2017-09-29T13:45:00.021Z,23.79
2017-09-29T13:47:27.134Z,24.05
2017-09-29T13:49:54.025Z,23.86
2017-09-29T13:52:20.375Z,23.63
2017-09-29T13:54:46.830Z,23.38
2017-09-29T13:57:13.356Z,23.56
2017-09-29T13:59:39.664Z,23.46
2017-09-29T14:02:06.556Z,23.51
2017-09-29T14:04:33.330Z,23.49
2017-09-29T14:07:00.605Z,23.28
2017-09-29T14:09:27.053Z,23.37
2017-09-29T14:11:53.597Z,23.32
2017-09-29T14:14:20.068Z,23.14
2017-09-29T14:16:47.701Z,23.08
2017-09-29T14:19:14.228Z,23.15
2017-09-29T14:21:40.736Z,23.12
2017-09-29T14:24:07.254Z,23.13
2017-09-29T14:26:33.779Z,22.89
2017-09-29T14:29:00.832Z,22.88
2017-09-29T14:31:27.849Z,22.96
2017-09-29T14:33:54.522Z,22.92
2017-09-29T14:36:21.236Z,22.89
2017-09-29T14:38:48.621Z,22.85
2017-09-29T14:41:15.296Z,22.73
2017-09-29T14:43:42.017Z,22.65
2017-09-29T14:46:08.564Z,22.81
2017-09-29T14:48:35.570Z,22.68
2017-09-29T14:51:01.897Z,22.73
2017-09-29T14:53:29.382Z,22.79
2017-09-29T14:55:55.947Z,22.71
2017-09-29T14:58:22.506Z,22.67
2017-09-29T15:00:48.908Z,22.51
2017-09-29T15:03:15.842Z,22.40
2017-09-29T15:05:42.360Z,22.61
2017-09-29T15:08:08.721Z,22.54
2017-09-29T15:10:36.063Z,22.56
2017-09-29T15:13:02.403Z,22.63
2017-09-29T15:15:28.744Z,22.72
2017-09-29T15:17:56.041Z,22.71
2017-09-29T15:20:22.439Z,22.60
2017-09-29T15:22:49.677Z,22.49
2017-09-29T15:25:16.305Z,22.57
2017-09-29T15:27:42.781Z,22.56
2017-09-29T15:30:10.837Z,22.44
2017-09-29T15:32:37.820Z,22.38
2017-09-29T15:35:04.492Z,22.29
2017-09-29T15:37:30.948Z,22.31
2017-09-29T15:39:57.470Z,22.20
2017-09-29T15:42:23.913Z,22.14
2017-09-29T15:44:50.578Z,22.17
2017-09-29T15:47:18.502Z,22.05
2017-09-29T15:49:45.033Z,22.01
2017-09-29T15:52:11.656Z,21.93
2017-09-29T15:54:39.066Z,21.80
2017-09-29T15:57:05.602Z,21.63
2017-09-29T15:59:32.143Z,21.60
2017-09-29T16:01:58.727Z,21.55
2017-09-29T16:04:25.773Z,21.55
2017-09-29T16:06:52.891Z,21.63
2017-09-29T16:09:20.193Z,21.52
2017-09-29T16:11:47.694Z,21.41
2017-09-29T16:14:14.581Z,21.31
2017-09-29T16:16:41.096Z,21.34
2017-09-29T16:19:07.943Z,21.23
2017-09-29T16:21:34.425Z,21.29
2017-09-29T16:24:01.862Z,21.21
2017-09-29T16:26:28.703Z,21.22
2017-09-29T16:28:55.535Z,21.27
2017-09-29T16:31:22.280Z,21.12
2017-09-29T16:33:48.846Z,21.04
2017-09-29T16:36:15.554Z,20.97
2017-09-29T16:38:42.099Z,20.98
2017-09-29T16:41:08.478Z,20.87
2017-09-29T16:43:36.508Z,20.95
2017-09-29T16:46:02.958Z,20.89
2017-09-29T16:48:29.562Z,20.78
2017-09-29T16:50:56.486Z,20.81
2017-09-29T16:53:24.281Z,20.79
2017-09-29T16:55:51.109Z,20.69
2017-09-29T16:58:19.063Z,20.61
2017-09-29T17:00:45.873Z,20.54
2017-09-29T17:03:13.037Z,20.55
2017-09-29T17:05:40.122Z,20.56
2017-09-29T17:08:07.334Z,20.41
2017-09-29T17:10:34.596Z,20.45
2017-09-29T17:13:01.921Z,20.49
2017-09-29T17:15:28.242Z,20.55
2017-09-29T17:17:56.745Z,20.48
2017-09-29T17:20:23.345Z,20.49
2017-09-29T17:22:50.617Z,20.53
2017-09-29T17:25:17.537Z,20.45
2017-09-29T17:27:45.480Z,20.46
2017-09-29T17:30:13.491Z,20.32
2017-09-29T17:32:40.355Z,20.19
2017-09-29T17:35:07.581Z,20.23
2017-09-29T17:37:34.128Z,20.17
2017-09-29T17:40:01.658Z,20.19
2017-09-29T17:42:28.401Z,20.27
2017-09-29T17:44:55.729Z,20.15
2017-09-29T17:47:25.940Z,19.99
2017-09-29T17:49:55.700Z,20.11
2017-09-29T17:52:22.248Z,20.17
2017-09-29T17:54:49.366Z,20.08
2017-09-29T17:57:16.407Z,20.03
2017-09-29T17:59:43.951Z,20.13
2017-09-29T18:02:10.491Z,20.15
2017-09-29T18:04:42.694Z,20.00
2017-09-29T18:07:09.774Z,20.04
2017-09-29T18:09:36.181Z,20.00
2017-09-29T18:12:02.783Z,20.12
2017-09-29T18:14:30.033Z,19.97
2017-09-29T18:16:57.241Z,19.90
2017-09-29T18:19:24.177Z,19.86
2017-09-29T18:21:51.766Z,19.87
2017-09-29T18:24:19.568Z,19.83
2017-09-29T18:26:46.100Z,19.80
2017-09-29T18:29:13.172Z,19.76
2017-09-29T18:31:39.602Z,19.81
2017-09-29T18:34:06.970Z,19.78
2017-09-29T18:36:34.358Z,19.79
2017-09-29T18:39:00.677Z,19.84
2017-09-29T18:41:27.170Z,19.89
2017-09-29T18:44:08.655Z,19.79
2017-09-29T18:46:39.939Z,19.77
2017-09-29T18:49:08.193Z,19.82
2017-09-29T18:51:35.657Z,19.77
2017-09-29T18:54:02.562Z,19.78
2017-09-29T18:56:28.997Z,19.82
2017-09-29T18:58:56.365Z,19.70
2017-09-29T19:01:24.461Z,19.56
2017-09-29T19:03:51.365Z,19.55
2017-09-29T19:06:18.846Z,19.54
2017-09-29T19:08:46.450Z,19.51
2017-09-29T19:11:13.815Z,19.48
2017-09-29T19:13:41.476Z,19.48
2017-09-29T19:16:08.412Z,19.46
2017-09-29T19:18:34.950Z,19.40
2017-09-29T19:21:01.421Z,19.35
2017-09-29T19:23:28.850Z,19.40
2017-09-29T19:25:55.282Z,19.35
2017-09-29T19:28:23.933Z,19.28
2017-09-29T19:30:51.419Z,19.28
2017-09-29T19:33:18.845Z,19.23
2017-09-29T19:35:45.741Z,19.16
2017-09-29T19:38:12.387Z,19.09
2017-09-29T19:40:40.186Z,19.18
2017-09-29T19:43:07.316Z,19.14
2017-09-29T19:45:33.815Z,19.17
2017-09-29T19:48:00.619Z,19.19
2017-09-29T19:50:28.905Z,19.11
2017-09-29T19:52:56.088Z,19.18
2017-09-29T19:55:23.246Z,19.18
2017-09-29T19:57:50.327Z,19.13
2017-09-29T20:00:17.419Z,19.08
2017-09-29T20:02:44.483Z,19.04
2017-09-29T20:05:11.113Z,19.01
2017-09-29T20:07:38.733Z,19.02
2017-09-29T20:10:06.234Z,18.97
2017-09-29T20:12:32.759Z,18.89
2017-09-29T20:15:00.007Z,18.88
2017-09-29T20:17:26.360Z,18.87
2017-09-29T20:19:53.348Z,18.92
2017-09-29T20:22:21.547Z,18.96
2017-09-29T20:24:48.975Z,18.87
2017-09-29T20:27:16.649Z,18.80
2017-09-29T20:29:43.487Z,18.85
2017-09-29T20:32:10.238Z,18.78
2017-09-29T20:34:37.171Z,18.70
2017-09-29T20:37:03.588Z,18.67
2017-09-29T20:39:30.705Z,18.69
2017-09-29T20:41:57.484Z,18.71
2017-09-29T20:44:26.395Z,18.65
2017-09-29T20:46:54.474Z,18.65
2017-09-29T20:49:22.084Z,18.65
2017-09-29T20:51:50.247Z,18.61
2017-09-29T20:54:19.165Z,18.58
2017-09-29T20:56:45.923Z,18.54
2017-09-29T20:59:14.348Z,18.54
2017-09-29T21:01:41.507Z,18.52
2017-09-29T21:04:09.782Z,18.47
2017-09-29T21:06:36.038Z,18.37
2017-09-29T21:09:04.289Z,18.40
2017-09-29T21:11:32.736Z,18.41
2017-09-29T21:13:59.216Z,18.38
2017-09-29T21:16:27.297Z,18.42
2017-09-29T21:18:53.633Z,18.41
2017-09-29T21:21:21.096Z,18.34
2017-09-29T21:23:48.537Z,18.27
2017-09-29T21:26:15.467Z,18.24
2017-09-29T21:28:42.053Z,18.17
2017-09-29T21:31:08.384Z,18.19
2017-09-29T21:33:35.895Z,18.16
2017-09-29T21:36:02.449Z,18.16
2017-09-29T21:38:31.454Z,18.14
2017-09-29T21:40:58.819Z,18.11
2017-09-29T21:43:25.679Z,18.10
2017-09-29T21:45:54.200Z,17.98
2017-09-29T21:48:22.929Z,17.94
2017-09-29T21:50:50.164Z,17.94
2017-09-29T21:53:17.816Z,17.96
2017-09-29T21:55:45.033Z,17.96
2017-09-29T21:58:12.169Z,17.87
2017-09-29T22:00:39.366Z,17.86
2017-09-29T22:03:07.698Z,17.90
2017-09-29T22:05:37.057Z,18.09
2017-09-29T22:08:04.378Z,18.27
2017-09-29T22:10:30.836Z,18.22
2017-09-29T22:12:59.524Z,18.11
2017-09-29T22:15:27.384Z,18.22
2017-09-29T22:17:54.014Z,18.34
2017-09-29T22:20:21.124Z,18.25
2017-09-29T22:22:47.632Z,17.99
2017-09-29T22:25:15.768Z,18.05
2017-09-29T22:27:43.207Z,18.00
2017-09-29T22:30:11.446Z,17.93
2017-09-29T22:32:38.435Z,17.98
2017-09-29T22:35:05.430Z,18.08
2017-09-29T22:37:32.282Z,18.00
2017-09-29T22:39:59.272Z,17.83
2017-09-29T22:42:27.248Z,17.75
2017-09-29T22:44:54.581Z,18.06
2017-09-29T22:47:24.796Z,17.95
2017-09-29T22:49:52.470Z,17.94
2017-09-29T22:52:20.225Z,18.00
2017-09-29T22:54:47.077Z,18.05
2017-09-29T22:57:15.453Z,18.10
2017-09-29T22:59:42.642Z,17.81
2017-09-29T23:02:09.765Z,17.71
2017-09-29T23:04:36.241Z,17.76
2017-09-29T23:07:04.089Z,17.87
2017-09-29T23:09:31.389Z,17.86
2017-09-29T23:11:58.728Z,17.83
2017-09-29T23:14:25.555Z,17.69
2017-09-29T23:16:51.999Z,17.44
2017-09-29T23:19:18.444Z,17.46
2017-09-29T23:21:45.462Z,17.68
2017-09-29T23:24:12.733Z,17.60
2017-09-29T23:26:39.028Z,17.85
2017-09-29T23:29:06.762Z,17.63
2017-09-29T23:31:33.357Z,17.43
2017-09-29T23:33:59.634Z,17.40
2017-09-29T23:36:27.158Z,17.41
2017-09-29T23:38:53.753Z,17.49
2017-09-29T23:41:21.213Z,17.70
2017-09-29T23:43:48.209Z,17.61
2017-09-29T23:46:15.980Z,17.48
2017-09-29T23:48:42.857Z,17.44
2017-09-29T23:51:10.162Z,17.25
2017-09-29T23:53:37.177Z,17.31
2017-09-29T23:56:03.661Z,17.31
2017-09-29T23:58:30.221Z,17.17
